Terminal Aerodrome Forecast
Issued by NWS

Home | Current Version | Previous Version | Text Only | Print | Product List | Glossary On
Versions: 1 2 3 4 5 6 7 8 9 10 11 12 13 14 15 16 17
905
FTUS45 KTFX 270520
TAFHLN
TAF
KHLN 270520Z 2706/2806 25006KT P6SM VCSH SCT040 OVC060
      TEMPO 2706/2709 -SHRA BKN035
     FM271000 26008KT P6SM SCT070 BKN150
     FM271800 29010G18KT P6SM VCSH SCT040 OVC060 PROB30 2721/2803
      -SHRA BKN030=

USA.gov is the U.S. government's official web portal to all federal, state and local government web resources and services.